createdAt,value
2023-01-19T00:01:34.378Z,5.16
2023-01-19T00:04:02.469Z,5.16
2023-01-19T00:06:31.569Z,5.08
2023-01-19T00:09:00.020Z,5.16
2023-01-19T00:11:28.249Z,5.16
2023-01-19T00:13:56.474Z,5.19
2023-01-19T00:16:26.001Z,5.19
2023-01-19T00:18:54.286Z,5.18
2023-01-19T00:21:22.939Z,5.19
2023-01-19T00:23:52.861Z,5.18
2023-01-19T00:26:22.854Z,5.19
2023-01-19T00:28:51.269Z,5.15
2023-01-19T00:31:21.915Z,5.19
2023-01-19T00:33:52.963Z,5.17
2023-01-19T00:36:21.518Z,5.19
2023-01-19T00:38:49.649Z,5.17
2023-01-19T00:41:17.776Z,5.14
2023-01-19T00:43:45.147Z,5.23
2023-01-19T00:46:13.330Z,5.24
2023-01-19T00:48:41.569Z,5.27
2023-01-19T00:51:11.030Z,5.30
2023-01-19T00:53:39.082Z,5.33
2023-01-19T00:56:08.119Z,5.29
2023-01-19T00:58:36.244Z,5.31
2023-01-19T01:01:04.971Z,5.28
2023-01-19T01:03:33.382Z,5.28
2023-01-19T01:06:01.469Z,5.22
2023-01-19T01:08:31.078Z,5.29
2023-01-19T01:10:59.310Z,5.38
2023-01-19T01:13:29.294Z,5.42
2023-01-19T01:15:58.295Z,5.45
2023-01-19T01:18:26.481Z,5.35
2023-01-19T01:20:56.198Z,5.52
2023-01-19T01:23:24.527Z,5.69
2023-01-19T01:25:54.141Z,5.73
2023-01-19T01:28:22.264Z,5.76
2023-01-19T01:30:54.994Z,5.79
2023-01-19T01:33:41.288Z,5.72
2023-01-19T01:36:10.341Z,5.76
2023-01-19T01:38:38.479Z,5.66
2023-01-19T01:41:08.640Z,5.55
2023-01-19T01:43:46.029Z,5.45
2023-01-19T01:46:16.295Z,5.39
2023-01-19T01:48:47.794Z,5.38
2023-01-19T01:51:25.619Z,5.35
2023-01-19T01:54:02.401Z,5.35
2023-01-19T01:56:36.145Z,5.36
2023-01-19T01:59:07.610Z,5.23
2023-01-19T02:01:54.765Z,5.27
2023-01-19T02:04:25.015Z,5.34
2023-01-19T02:07:11.056Z,5.38
2023-01-19T02:09:56.557Z,5.39
2023-01-19T02:12:43.793Z,5.38
2023-01-19T02:15:17.776Z,5.45
2023-01-19T02:17:46.231Z,5.45
2023-01-19T02:20:14.921Z,5.45
2023-01-19T02:22:52.067Z,5.45
2023-01-19T02:25:21.753Z,5.49
2023-01-19T02:27:52.829Z,5.51
2023-01-19T02:30:21.119Z,5.43
2023-01-19T02:32:50.000Z,5.48
2023-01-19T02:35:18.194Z,5.48
2023-01-19T02:37:46.790Z,5.43
2023-01-19T02:40:19.791Z,5.50
2023-01-19T02:42:51.700Z,5.50
2023-01-19T02:45:23.063Z,5.54
2023-01-19T02:47:53.719Z,5.50
2023-01-19T02:50:43.753Z,5.54
2023-01-19T02:53:53.470Z,5.55
2023-01-19T02:56:45.686Z,5.47
2023-01-19T02:59:30.091Z,5.53
2023-01-19T03:02:19.363Z,5.56
2023-01-19T03:05:00.688Z,5.52
2023-01-19T03:07:39.311Z,5.40
2023-01-19T03:10:16.422Z,5.43
2023-01-19T03:12:50.256Z,5.46
2023-01-19T03:15:23.706Z,5.39
2023-01-19T03:17:54.326Z,5.33
2023-01-19T03:20:25.651Z,5.31
2023-01-19T03:22:57.413Z,5.39
2023-01-19T03:25:27.314Z,5.38
2023-01-19T03:27:58.699Z,5.43
2023-01-19T03:30:33.252Z,5.37
2023-01-19T03:33:07.353Z,5.17
2023-01-19T03:35:40.117Z,5.33
2023-01-19T03:38:13.643Z,5.14
2023-01-19T03:40:42.871Z,5.16
2023-01-19T03:43:11.451Z,5.31
2023-01-19T03:45:41.501Z,5.37
2023-01-19T03:48:10.071Z,5.45
2023-01-19T03:50:38.292Z,5.48
2023-01-19T03:53:10.677Z,5.48
2023-01-19T03:55:41.159Z,5.54
2023-01-19T03:58:09.310Z,5.58
2023-01-19T04:00:38.243Z,5.56
2023-01-19T04:03:13.905Z,5.46
2023-01-19T04:05:42.448Z,5.57
2023-01-19T04:08:10.750Z,5.59
2023-01-19T04:10:39.554Z,5.56
2023-01-19T04:13:07.758Z,5.56
2023-01-19T04:15:35.820Z,5.51
2023-01-19T04:18:03.994Z,5.50
2023-01-19T04:20:33.959Z,5.51
2023-01-19T04:23:03.418Z,5.61
2023-01-19T04:25:31.669Z,5.18
2023-01-19T04:27:59.757Z,5.44
2023-01-19T04:30:28.616Z,5.45
2023-01-19T04:32:56.818Z,5.50
2023-01-19T04:35:24.927Z,5.40
2023-01-19T04:37:54.355Z,5.49
2023-01-19T04:40:22.472Z,5.40
2023-01-19T04:42:51.098Z,5.40
2023-01-19T04:45:19.175Z,5.46
2023-01-19T04:47:47.193Z,5.48
2023-01-19T04:50:15.355Z,5.46
2023-01-19T04:52:43.449Z,5.41
2023-01-19T04:55:13.251Z,5.26
2023-01-19T04:57:41.498Z,5.01
2023-01-19T05:00:11.024Z,5.23
2023-01-19T05:02:39.124Z,5.26
2023-01-19T05:05:07.483Z,5.13
2023-01-19T05:07:35.585Z,5.14
2023-01-19T05:10:03.730Z,4.92
2023-01-19T05:12:33.162Z,5.03
2023-01-19T05:15:01.695Z,4.91
2023-01-19T05:17:29.793Z,4.40
2023-01-19T05:19:57.908Z,4.42
2023-01-19T05:22:25.994Z,4.69
2023-01-19T05:24:54.444Z,4.73
2023-01-19T05:27:22.542Z,4.68
2023-01-19T05:29:52.111Z,4.94
2023-01-19T05:32:20.193Z,5.06
2023-01-19T05:34:48.365Z,5.14
2023-01-19T05:37:16.404Z,5.10
2023-01-19T05:39:44.512Z,5.18
2023-01-19T05:42:12.581Z,5.26
2023-01-19T05:44:40.713Z,5.25
2023-01-19T05:47:10.411Z,5.33
2023-01-19T05:49:38.523Z,5.23
2023-01-19T05:52:06.625Z,5.31
2023-01-19T05:54:34.823Z,5.36
2023-01-19T05:57:03.189Z,5.38
2023-01-19T05:59:31.264Z,5.44
2023-01-19T06:02:00.079Z,5.51
2023-01-19T06:04:29.911Z,5.37
2023-01-19T06:06:58.008Z,5.48
2023-01-19T06:09:26.104Z,5.46
2023-01-19T06:11:56.671Z,5.39
2023-01-19T06:14:25.188Z,5.26
2023-01-19T06:16:53.487Z,5.11
2023-01-19T06:19:21.596Z,5.06
2023-01-19T06:21:52.497Z,5.01
2023-01-19T06:24:24.283Z,4.92
2023-01-19T06:26:52.525Z,4.80
2023-01-19T06:29:20.719Z,4.80
2023-01-19T06:31:49.675Z,4.65
2023-01-19T06:34:19.090Z,4.69
2023-01-19T06:36:47.389Z,4.78
2023-01-19T06:39:16.869Z,4.71
2023-01-19T06:41:44.960Z,4.66
2023-01-19T06:44:13.099Z,4.59
2023-01-19T06:46:41.261Z,4.69
2023-01-19T06:49:15.294Z,4.72
2023-01-19T06:51:43.441Z,4.70
2023-01-19T06:54:11.736Z,4.65
2023-01-19T06:56:41.270Z,4.72
2023-01-19T06:59:10.000Z,4.68
2023-01-19T07:01:38.528Z,4.59
2023-01-19T07:04:07.029Z,4.65
2023-01-19T07:06:35.250Z,4.86
2023-01-19T07:09:08.178Z,4.78
2023-01-19T07:11:36.357Z,4.85
2023-01-19T07:14:06.502Z,4.87
2023-01-19T07:16:34.770Z,4.80
2023-01-19T07:19:02.967Z,4.75
2023-01-19T07:21:31.209Z,4.83
2023-01-19T07:23:59.261Z,4.75
2023-01-19T07:26:28.099Z,4.78
2023-01-19T07:28:56.175Z,4.84
2023-01-19T07:31:25.858Z,4.85
2023-01-19T07:33:54.013Z,4.91
2023-01-19T07:36:22.201Z,4.83
2023-01-19T07:38:50.289Z,4.87
2023-01-19T07:41:18.339Z,4.85
2023-01-19T07:43:46.465Z,4.85
2023-01-19T07:46:19.636Z,4.93
2023-01-19T07:48:49.321Z,4.78
2023-01-19T07:51:18.999Z,4.81
2023-01-19T07:53:48.346Z,4.84
2023-01-19T07:56:16.427Z,4.80
2023-01-19T07:58:44.566Z,4.85
2023-01-19T08:01:14.362Z,4.72
2023-01-19T08:03:43.059Z,4.74
2023-01-19T08:06:21.024Z,4.64
2023-01-19T08:08:49.940Z,4.65
2023-01-19T08:11:18.227Z,4.69
2023-01-19T08:13:46.550Z,4.66
2023-01-19T08:16:14.634Z,4.67
2023-01-19T08:18:42.733Z,4.77
2023-01-19T08:21:11.117Z,4.68
2023-01-19T08:23:41.168Z,4.61
2023-01-19T08:26:28.408Z,4.78
2023-01-19T08:28:58.710Z,4.72
2023-01-19T08:31:27.693Z,4.74
2023-01-19T08:33:55.951Z,4.80
2023-01-19T08:36:25.135Z,4.65
2023-01-19T08:38:54.955Z,4.74
2023-01-19T08:41:23.395Z,4.69
2023-01-19T08:43:51.686Z,4.64
2023-01-19T08:46:22.042Z,4.33
2023-01-19T08:48:50.584Z,4.43
2023-01-19T08:51:19.419Z,4.56
2023-01-19T08:53:47.783Z,4.60
2023-01-19T08:56:20.341Z,4.72
2023-01-19T08:58:59.522Z,4.79
2023-01-19T09:01:37.117Z,4.94
2023-01-19T09:04:05.914Z,4.93
2023-01-19T09:06:34.272Z,4.65
2023-01-19T09:09:02.394Z,4.70
2023-01-19T09:11:32.007Z,4.74
2023-01-19T09:14:00.090Z,4.39
2023-01-19T09:16:29.336Z,4.27
2023-01-19T09:18:57.409Z,4.60
2023-01-19T09:21:25.503Z,4.76
2023-01-19T09:23:54.815Z,4.83
2023-01-19T09:26:23.873Z,4.91
2023-01-19T09:28:53.363Z,4.71
2023-01-19T09:31:21.501Z,4.56
2023-01-19T09:33:49.798Z,4.66
2023-01-19T09:36:17.938Z,4.53
2023-01-19T09:38:46.148Z,4.37
2023-01-19T09:41:21.984Z,4.16
2023-01-19T09:43:55.913Z,4.19
2023-01-19T09:46:28.672Z,4.19
2023-01-19T09:48:58.745Z,4.28
2023-01-19T09:51:29.407Z,4.19
2023-01-19T09:54:09.303Z,3.99
2023-01-19T09:56:37.818Z,3.89
2023-01-19T09:59:19.542Z,4.02
2023-01-19T10:02:02.585Z,3.51
2023-01-19T10:04:35.589Z,3.19
2023-01-19T10:07:16.625Z,3.10
2023-01-19T10:09:56.054Z,2.74
2023-01-19T10:12:36.931Z,3.09
2023-01-19T10:15:18.493Z,3.07
2023-01-19T10:17:57.417Z,3.16
2023-01-19T10:20:33.066Z,3.27
2023-01-19T10:23:03.211Z,2.90
2023-01-19T10:25:32.266Z,3.09
2023-01-19T10:28:02.016Z,3.07
2023-01-19T10:30:31.594Z,3.11
2023-01-19T10:32:59.915Z,2.65
2023-01-19T10:35:28.297Z,2.95
2023-01-19T10:38:01.450Z,2.83
2023-01-19T10:40:35.155Z,3.04
2023-01-19T10:43:03.777Z,3.02
2023-01-19T10:45:36.704Z,2.94
2023-01-19T10:48:08.079Z,2.87
2023-01-19T10:50:39.828Z,2.60
2023-01-19T10:53:21.668Z,2.71
2023-01-19T10:56:09.889Z,2.84
2023-01-19T10:58:37.975Z,3.13
2023-01-19T11:01:17.655Z,2.95
2023-01-19T11:03:45.890Z,3.19
2023-01-19T11:06:26.147Z,3.03
2023-01-19T11:08:55.406Z,2.98
2023-01-19T11:11:25.723Z,2.85
2023-01-19T11:14:11.297Z,2.97
2023-01-19T11:16:41.693Z,2.91
2023-01-19T11:19:20.439Z,2.85
2023-01-19T11:21:52.560Z,2.81
2023-01-19T11:24:22.003Z,2.69
2023-01-19T11:26:57.623Z,2.62
2023-01-19T11:29:27.767Z,2.86
2023-01-19T11:32:11.155Z,2.47
2023-01-19T11:34:39.906Z,2.39
2023-01-19T11:37:27.431Z,2.71
2023-01-19T11:39:58.205Z,2.53
2023-01-19T11:42:27.397Z,2.30
2023-01-19T11:45:01.452Z,2.42
2023-01-19T11:47:37.083Z,2.69
2023-01-19T11:50:08.184Z,2.75
2023-01-19T11:52:43.684Z,2.94
2023-01-19T11:55:19.724Z,2.96
2023-01-19T11:57:51.532Z,2.58
2023-01-19T12:00:27.014Z,2.64
2023-01-19T12:03:01.905Z,2.80
2023-01-19T12:05:34.473Z,2.83
2023-01-19T12:08:08.117Z,2.93
2023-01-19T12:10:43.706Z,2.74
2023-01-19T12:13:21.532Z,2.53
2023-01-19T12:15:54.563Z,2.45
2023-01-19T12:18:26.882Z,2.40
2023-01-19T12:20:56.704Z,2.32
2023-01-19T12:23:36.938Z,2.43
2023-01-19T12:26:29.101Z,2.54
2023-01-19T12:29:02.981Z,2.44
2023-01-19T12:31:32.876Z,2.65
2023-01-19T12:34:33.608Z,2.42
2023-01-19T12:37:09.383Z,2.26
2023-01-19T12:39:51.092Z,2.31
2023-01-19T12:42:21.341Z,2.60
2023-01-19T12:44:50.099Z,2.40
2023-01-19T12:47:24.432Z,1.80
2023-01-19T12:49:58.735Z,1.97
2023-01-19T12:52:33.467Z,2.08
2023-01-19T12:55:17.295Z,1.84
2023-01-19T12:57:51.860Z,1.88
2023-01-19T13:00:32.268Z,1.64
2023-01-19T13:03:01.523Z,1.67
2023-01-19T13:06:01.200Z,1.48
2023-01-19T13:08:50.961Z,1.67
2023-01-19T13:11:21.001Z,1.45
2023-01-19T13:14:26.805Z,1.80
2023-01-19T13:17:22.447Z,1.56
2023-01-19T13:19:59.985Z,1.71
2023-01-19T13:23:15.553Z,1.50
2023-01-19T13:25:50.564Z,1.83
2023-01-19T13:28:20.729Z,1.56
2023-01-19T13:30:57.957Z,1.89
2023-01-19T13:33:29.316Z,1.71
2023-01-19T13:35:59.615Z,1.75
2023-01-19T13:38:29.115Z,1.73
2023-01-19T13:41:02.974Z,1.59
2023-01-19T13:43:34.532Z,1.53
2023-01-19T13:46:03.688Z,1.76
2023-01-19T13:48:33.401Z,1.82
2023-01-19T13:51:04.473Z,1.61
2023-01-19T13:53:33.380Z,1.84
2023-01-19T13:56:20.651Z,1.59
2023-01-19T13:59:04.988Z,1.49
2023-01-19T14:01:33.372Z,1.31
2023-01-19T14:04:01.846Z,1.48
2023-01-19T14:06:36.121Z,1.74
2023-01-19T14:09:18.359Z,1.63
2023-01-19T14:12:05.187Z,2.04
2023-01-19T14:14:34.008Z,2.14
2023-01-19T14:17:02.265Z,1.90
2023-01-19T14:19:30.791Z,2.07
2023-01-19T14:22:01.159Z,1.86
2023-01-19T14:24:32.152Z,2.10
2023-01-19T14:27:19.899Z,2.06
2023-01-19T14:29:54.822Z,1.99
2023-01-19T14:32:28.863Z,1.77
2023-01-19T14:35:16.951Z,1.74
2023-01-19T14:37:48.889Z,2.13
2023-01-19T14:40:19.995Z,2.18
2023-01-19T14:42:54.133Z,2.25
2023-01-19T14:45:24.894Z,2.06
2023-01-19T14:47:58.580Z,2.03
2023-01-19T14:50:29.192Z,2.08
2023-01-19T14:53:00.748Z,2.17
2023-01-19T14:55:35.024Z,2.26
2023-01-19T14:58:11.685Z,2.26
2023-01-19T15:00:40.447Z,2.11
2023-01-19T15:03:09.944Z,1.69
2023-01-19T15:05:38.407Z,1.75
2023-01-19T15:08:08.098Z,1.90
2023-01-19T15:10:37.507Z,1.86
2023-01-19T15:13:07.011Z,2.00
2023-01-19T15:15:36.394Z,2.10
2023-01-19T15:18:06.013Z,2.32
2023-01-19T15:20:34.174Z,2.55
2023-01-19T15:23:02.273Z,2.63
2023-01-19T15:25:31.696Z,2.82
2023-01-19T15:28:01.024Z,2.95
2023-01-19T15:30:33.851Z,2.80
2023-01-19T15:33:02.527Z,2.69
2023-01-19T15:35:30.998Z,2.94
2023-01-19T15:37:59.894Z,2.99
2023-01-19T15:40:28.113Z,3.24
2023-01-19T15:43:33.766Z,3.33
2023-01-19T15:46:03.651Z,3.49
2023-01-19T15:48:31.787Z,3.20
2023-01-19T15:50:59.943Z,2.84
2023-01-19T15:53:28.134Z,3.11
2023-01-19T15:55:56.961Z,3.11
2023-01-19T16:00:20.822Z,2.60
2023-01-19T16:02:50.310Z,2.59
2023-01-19T16:05:18.551Z,2.99
2023-01-19T16:07:46.651Z,3.23
2023-01-19T16:10:16.935Z,3.14
2023-01-19T16:30:35.632Z,2.61
2023-01-19T16:33:05.367Z,2.72
2023-01-19T16:35:33.674Z,2.21
2023-01-19T16:38:01.754Z,2.13
2023-01-19T16:40:30.034Z,2.17
2023-01-19T16:42:58.788Z,2.37
2023-01-19T16:45:26.998Z,2.00
2023-01-19T16:47:56.463Z,2.06
2023-01-19T16:50:24.573Z,2.08
2023-01-19T16:52:57.683Z,2.05
2023-01-19T16:55:25.835Z,2.21
2023-01-19T16:57:54.201Z,2.52
2023-01-19T17:00:22.859Z,2.03
2023-01-19T17:02:50.972Z,2.13
2023-01-19T17:05:20.466Z,2.33
2023-01-19T17:07:48.601Z,2.18
2023-01-19T17:10:17.474Z,2.23
2023-01-19T17:12:45.539Z,2.59
2023-01-19T17:15:13.690Z,2.81
2023-01-19T17:17:41.741Z,2.71
2023-01-19T17:20:11.252Z,3.06
2023-01-19T17:22:40.944Z,3.38
2023-01-19T17:25:09.935Z,3.51
2023-01-19T17:27:38.021Z,3.30
2023-01-19T17:30:06.851Z,3.10
2023-01-19T17:32:35.788Z,2.74
2023-01-19T17:35:04.071Z,2.94
2023-01-19T17:37:32.170Z,2.98
2023-01-19T17:40:01.736Z,2.83
2023-01-19T17:42:29.829Z,2.71
2023-01-19T17:44:57.976Z,2.55
2023-01-19T17:47:26.165Z,2.90
2023-01-19T17:49:54.302Z,2.65
2023-01-19T17:52:22.466Z,3.09
2023-01-19T17:54:50.763Z,2.69
2023-01-19T17:57:20.190Z,2.75
2023-01-19T17:59:48.320Z,2.72
2023-01-19T18:02:16.508Z,2.81
2023-01-19T18:04:44.977Z,2.85
2023-01-19T18:07:13.042Z,2.78
2023-01-19T18:09:41.175Z,2.83
2023-01-19T18:12:09.440Z,2.92
2023-01-19T18:14:40.357Z,2.79
2023-01-19T18:17:08.585Z,2.83
2023-01-19T18:19:36.705Z,2.79
2023-01-19T18:22:04.921Z,3.01
2023-01-19T18:24:33.002Z,3.22
2023-01-19T18:27:01.117Z,3.32
2023-01-19T18:29:29.250Z,3.26
2023-01-19T18:31:58.876Z,3.51
2023-01-19T18:34:26.924Z,3.11
2023-01-19T18:36:55.266Z,2.59
2023-01-19T18:39:23.304Z,2.48
2023-01-19T18:41:51.398Z,2.44
2023-01-19T18:44:19.593Z,2.47
2023-01-19T18:46:47.715Z,2.50
2023-01-19T18:49:17.326Z,2.68
2023-01-19T18:51:45.516Z,2.37
2023-01-19T18:54:13.769Z,2.51
2023-01-19T18:56:41.998Z,2.98
2023-01-19T18:59:10.777Z,3.07
2023-01-19T19:01:39.038Z,3.05
2023-01-19T19:04:08.239Z,2.94
2023-01-19T19:06:37.781Z,2.68
2023-01-19T19:09:05.925Z,2.66
2023-01-19T19:11:34.104Z,2.65
2023-01-19T19:14:03.395Z,2.90
2023-01-19T19:16:34.903Z,2.65
2023-01-19T19:19:04.034Z,2.79
2023-01-19T19:21:32.082Z,2.23
2023-01-19T19:24:01.724Z,1.89
2023-01-19T19:26:30.872Z,1.78
2023-01-19T19:28:59.071Z,1.71
2023-01-19T19:31:27.765Z,2.21
2023-01-19T19:33:57.393Z,2.51
2023-01-19T19:36:26.473Z,2.00
2023-01-19T19:38:54.976Z,2.42
2023-01-19T19:41:27.122Z,2.78
2023-01-19T19:43:56.068Z,2.87
2023-01-19T19:46:25.318Z,2.60
2023-01-19T19:48:54.673Z,2.30
2023-01-19T19:51:25.607Z,2.51
2023-01-19T19:53:54.694Z,2.17
2023-01-19T19:56:26.290Z,2.17
2023-01-19T19:58:56.584Z,2.04
2023-01-19T20:01:32.045Z,2.94
2023-01-19T20:04:06.991Z,2.44
2023-01-19T20:06:38.844Z,2.59
2023-01-19T20:09:09.031Z,3.06
2023-01-19T20:11:38.730Z,2.95
2023-01-19T20:14:07.735Z,3.17
2023-01-19T20:16:36.275Z,3.02
2023-01-19T20:19:05.243Z,3.15
2023-01-19T20:21:35.704Z,3.15
2023-01-19T20:24:06.368Z,3.27
2023-01-19T20:26:40.967Z,3.16
2023-01-19T20:29:10.351Z,3.13
2023-01-19T20:31:40.746Z,3.03
2023-01-19T20:34:11.055Z,2.50
2023-01-19T20:36:41.195Z,2.59
2023-01-19T20:39:11.185Z,2.45
2023-01-19T20:41:45.128Z,2.70
2023-01-19T20:44:15.352Z,2.77
2023-01-19T20:46:43.790Z,3.03
2023-01-19T20:49:12.060Z,3.08
2023-01-19T20:51:43.479Z,2.87
2023-01-19T20:54:12.851Z,2.28
2023-01-19T20:56:42.624Z,1.98
2023-01-19T20:59:11.931Z,2.42
2023-01-19T21:01:40.918Z,2.49
2023-01-19T21:04:09.759Z,2.23
2023-01-19T21:06:38.356Z,1.79
2023-01-19T21:09:07.376Z,1.98
2023-01-19T21:11:36.056Z,2.20
2023-01-19T21:14:06.116Z,2.15
2023-01-19T21:16:35.708Z,2.03
2023-01-19T21:19:04.132Z,2.01
2023-01-19T21:21:32.384Z,2.34
2023-01-19T21:24:01.913Z,2.26
2023-01-19T21:26:31.056Z,2.84
2023-01-19T21:28:59.743Z,2.74
2023-01-19T21:31:29.583Z,2.66
2023-01-19T21:33:58.222Z,2.30
2023-01-19T21:36:26.866Z,2.45
2023-01-19T21:39:00.195Z,2.23
2023-01-19T21:41:29.952Z,2.46
2023-01-19T21:43:58.632Z,2.11
2023-01-19T21:46:29.434Z,2.08
2023-01-19T21:49:00.919Z,2.26
2023-01-19T21:51:29.261Z,1.62
2023-01-19T21:53:59.712Z,2.11
2023-01-19T21:56:28.975Z,2.43
2023-01-19T21:58:57.888Z,2.12
2023-01-19T22:01:26.061Z,2.03
2023-01-19T22:03:55.675Z,2.21
2023-01-19T22:06:26.694Z,2.35
2023-01-19T22:08:55.645Z,2.54
2023-01-19T22:11:24.876Z,2.67
2023-01-19T22:13:53.099Z,2.65
2023-01-19T22:16:23.318Z,2.60
2023-01-19T22:18:54.192Z,2.26
2023-01-19T22:21:25.601Z,2.15
2023-01-19T22:23:56.029Z,2.32
2023-01-19T22:26:24.761Z,2.24
2023-01-19T22:28:55.085Z,2.99
2023-01-19T22:31:24.689Z,3.07
2023-01-19T22:33:53.763Z,3.06
2023-01-19T22:36:25.096Z,2.91
2023-01-19T22:38:55.699Z,3.19
2023-01-19T22:41:26.126Z,2.76
2023-01-19T22:43:56.608Z,2.51
2023-01-19T22:46:26.724Z,2.60
2023-01-19T22:48:55.898Z,3.02
2023-01-19T22:51:26.329Z,2.61
2023-01-19T22:53:54.424Z,2.46
2023-01-19T22:56:24.486Z,2.88
2023-01-19T22:58:53.159Z,2.72
2023-01-19T23:01:22.912Z,2.95
2023-01-19T23:03:51.566Z,3.18
2023-01-19T23:06:21.461Z,2.91
2023-01-19T23:08:51.666Z,2.44
2023-01-19T23:11:22.620Z,2.24
2023-01-19T23:13:51.242Z,2.68
2023-01-19T23:16:19.864Z,2.91
2023-01-19T23:18:48.464Z,2.87
2023-01-19T23:21:18.991Z,2.71
2023-01-19T23:23:47.674Z,2.93
2023-01-19T23:26:19.027Z,2.71
2023-01-19T23:28:47.924Z,2.54
2023-01-19T23:31:18.402Z,2.65
2023-01-19T23:33:46.669Z,2.31
2023-01-19T23:36:16.010Z,2.27
2023-01-19T23:38:49.787Z,2.38
2023-01-19T23:41:19.563Z,2.14
2023-01-19T23:43:47.697Z,2.45
2023-01-19T23:46:17.343Z,2.02
2023-01-19T23:48:45.854Z,2.30
2023-01-19T23:51:16.471Z,2.23
2023-01-19T23:53:45.069Z,1.99
2023-01-19T23:56:15.938Z,2.26
2023-01-19T23:58:46.647Z,2.49
